Time;durP1;ratioP1;P1;durP2;ratioP2;P2;SDS_P1;SDS_P2;PMS_P1;PMS_P2;Temp;Humidity;BMP_temperature;BMP_pressure;BME280_temperature;BME280_humidity;BME280_pressure;Samples;Min_cycle;Max_cycle;Signal;HPM_P1;HPM_P2
2021/12/05 00:21:43;;;;;;;26.07;15.23;;;0.80;99.90;;;;;;5039604;28;20228;-62
2021/12/05 00:24:13;;;;;;;29.53;16.73;;;0.80;99.90;;;;;;5071472;28;20224;-64
2021/12/05 00:26:42;;;;;;;28.37;15.80;;;0.80;99.90;;;;;;5071837;28;20296;-63
2021/12/05 00:29:25;;;;;;;32.20;17.07;;;0.70;99.90;;;;;;5072928;28;20559;-63
2021/12/05 00:46:16;;;;;;;26.23;15.03;;;0.60;99.90;;;;;;5075205;28;20200;-63
2021/12/05 01:02:55;;;;;;;26.10;15.37;;;0.50;99.90;;;;;;5032036;28;20214;-63
2021/12/05 01:11:14;;;;;;;29.73;15.43;;;0.50;99.90;;;;;;5084432;28;20247;-64
2021/12/05 01:13:55;;;;;;;31.60;15.37;;;0.50;99.90;;;;;;5063795;28;20224;-64
2021/12/05 01:16:24;;;;;;;26.27;15.17;;;0.50;99.90;;;;;;5090047;28;20604;-63
2021/12/05 01:18:53;;;;;;;28.47;15.53;;;0.50;99.90;;;;;;5082794;28;20205;-63
2021/12/05 01:21:22;;;;;;;28.10;15.67;;;0.40;99.90;;;;;;5093576;28;20272;-63
2021/12/05 01:23:58;;;;;;;26.00;14.90;;;0.40;99.90;;;;;;5068086;28;20205;-61
2021/12/05 01:26:29;;;;;;;31.77;15.90;;;0.40;99.90;;;;;;5076437;28;20211;-62
2021/12/05 01:29:07;;;;;;;28.37;15.00;;;0.30;99.90;;;;;;5061252;28;20243;-64
2021/12/05 01:31:46;;;;;;;27.10;15.33;;;0.30;99.90;;;;;;5085459;28;20237;-64
2021/12/05 01:34:28;;;;;;;26.07;14.67;;;0.30;99.90;;;;;;5090400;28;20208;-63
2021/12/05 01:37:06;;;;;;;25.50;13.70;;;0.30;99.90;;;;;;5084770;28;20243;-63
2021/12/05 01:39:46;;;;;;;30.33;16.10;;;0.30;99.90;;;;;;5074771;28;20217;-62
2021/12/05 01:45:23;;;;;;;27.20;14.27;;;0.30;99.90;;;;;;5086535;28;20203;-64
2021/12/05 01:48:28;;;;;;;23.90;14.90;;;0.30;99.90;;;;;;5075848;28;20205;-62
2021/12/05 01:51:32;;;;;;;29.43;13.87;;;0.30;99.90;;;;;;5079396;28;20209;-62
2021/12/05 01:54:20;;;;;;;25.03;13.67;;;0.40;99.90;;;;;;5094958;28;20624;-64
2021/12/05 01:59:52;;;;;;;24.10;14.20;;;0.40;99.90;;;;;;5081205;28;20212;-63
2021/12/05 02:10:56;;;;;;;27.43;14.27;;;0.50;99.90;;;;;;5060677;28;20605;-63
2021/12/05 02:30:08;;;;;;;25.07;14.23;;;0.60;99.90;;;;;;5074050;28;20267;-63
2021/12/05 02:35:32;;;;;;;25.97;13.97;;;0.60;99.90;;;;;;5071799;28;20216;-62
2021/12/05 02:38:25;;;;;;;25.27;14.17;;;0.70;99.90;;;;;;5086092;28;20217;-63
2021/12/05 02:41:07;;;;;;;24.57;14.67;;;0.70;99.90;;;;;;5088851;28;20205;-63
2021/12/05 02:43:36;;;;;;;22.67;14.10;;;0.70;99.90;;;;;;5079597;28;20559;-63
2021/12/05 02:46:05;;;;;;;25.50;13.83;;;0.80;99.90;;;;;;5087700;28;20304;-63
2021/12/05 02:48:36;;;;;;;26.20;13.47;;;0.80;99.90;;;;;;5076936;28;20223;-63
2021/12/05 02:51:06;;;;;;;25.83;14.20;;;0.80;99.90;;;;;;5083761;28;20209;-64
2021/12/05 02:53:40;;;;;;;29.77;15.37;;;0.80;99.90;;;;;;5081585;28;20223;-64
2021/12/05 02:56:08;;;;;;;25.60;14.37;;;0.80;99.90;;;;;;5087454;28;20224;-62
2021/12/05 02:58:40;;;;;;;24.93;15.00;;;0.80;99.90;;;;;;5072872;28;20244;-63
2021/12/05 03:01:17;;;;;;;27.33;15.03;;;0.80;99.90;;;;;;5073753;28;20205;-64
2021/12/05 03:03:44;;;;;;;23.37;14.80;;;0.80;99.90;;;;;;5093072;28;20679;-62
2021/12/05 03:06:16;;;;;;;24.70;14.33;;;0.80;99.90;;;;;;5077156;28;20244;-63
2021/12/05 03:08:46;;;;;;;25.77;14.37;;;0.80;99.90;;;;;;5085404;28;20201;-64
2021/12/05 03:11:14;;;;;;;26.30;14.33;;;0.80;99.90;;;;;;5072954;28;20300;-63
2021/12/05 03:13:41;;;;;;;26.03;14.13;;;0.80;99.90;;;;;;5092739;28;20252;-64
2021/12/05 03:16:11;;;;;;;23.30;14.37;;;0.80;99.90;;;;;;5081832;28;20209;-65
2021/12/05 03:18:39;;;;;;;21.20;12.87;;;0.70;99.90;;;;;;5073538;28;20291;-64
2021/12/05 03:21:07;;;;;;;24.27;13.73;;;0.70;99.90;;;;;;5072809;28;20205;-64
2021/12/05 03:23:35;;;;;;;26.40;14.03;;;0.70;99.90;;;;;;5090507;28;20211;-63
2021/12/05 03:26:05;;;;;;;25.20;14.83;;;0.70;99.90;;;;;;5081227;28;20205;-62
2021/12/05 03:28:32;;;;;;;23.97;14.43;;;0.60;99.90;;;;;;5078064;28;20296;-62
2021/12/05 03:30:59;;;;;;;23.93;13.10;;;0.60;99.90;;;;;;5083925;28;20313;-62
2021/12/05 03:33:27;;;;;;;21.23;13.77;;;0.60;99.90;;;;;;5082409;28;20318;-63
2021/12/05 03:35:54;;;;;;;24.70;13.53;;;0.60;99.90;;;;;;5076951;28;20707;-64
2021/12/05 03:38:21;;;;;;;24.30;12.97;;;0.60;99.90;;;;;;5086070;28;20730;-62
2021/12/05 03:40:48;;;;;;;23.93;12.77;;;0.50;99.90;;;;;;5083190;28;20200;-61
2021/12/05 03:43:18;;;;;;;23.87;13.93;;;0.50;99.90;;;;;;5072161;28;20213;-63
2021/12/05 03:45:49;;;;;;;24.37;13.10;;;0.40;99.90;;;;;;5085743;28;20658;-63
2021/12/05 03:48:17;;;;;;;24.40;13.10;;;0.40;99.90;;;;;;5076982;28;20288;-64
2021/12/05 03:50:45;;;;;;;22.00;13.27;;;0.30;99.90;;;;;;5084564;28;20209;-63
2021/12/05 03:53:13;;;;;;;24.50;13.30;;;0.30;99.90;;;;;;5092534;28;20200;-64
2021/12/05 03:55:43;;;;;;;23.80;12.67;;;0.30;99.90;;;;;;5081103;28;20205;-62
2021/12/05 03:58:11;;;;;;;23.33;13.07;;;0.20;99.90;;;;;;5072735;28;20268;-63
2021/12/05 04:00:43;;;;;;;24.43;13.67;;;0.20;99.90;;;;;;5073467;28;20573;-64
2021/12/05 04:03:13;;;;;;;23.03;13.63;;;0.20;99.90;;;;;;5072819;28;20296;-63
2021/12/05 04:05:40;;;;;;;24.43;13.93;;;0.10;99.90;;;;;;5071625;28;20290;-63
2021/12/05 04:08:11;;;;;;;25.47;14.40;;;0.10;99.90;;;;;;5073051;28;20231;-64
2021/12/05 04:10:41;;;;;;;22.60;14.17;;;0.10;99.90;;;;;;5080574;28;20307;-62
2021/12/05 04:13:09;;;;;;;23.80;13.80;;;0.10;99.90;;;;;;5073552;28;20233;-64
2021/12/05 04:15:36;;;;;;;22.23;12.73;;;0.10;99.90;;;;;;5075217;28;20926;-63
2021/12/05 04:18:05;;;;;;;26.53;14.93;;;0.10;99.90;;;;;;5075665;28;20288;-64
2021/12/05 04:20:33;;;;;;;23.63;12.83;;;0.10;99.90;;;;;;5074994;28;20252;-63
2021/12/05 04:23:00;;;;;;;25.60;13.57;;;0.10;99.90;;;;;;5081909;28;20201;-64
2021/12/05 04:25:28;;;;;;;24.70;13.23;;;0.10;99.90;;;;;;5090024;28;20256;-64
2021/12/05 04:27:57;;;;;;;25.93;13.47;;;0.10;99.90;;;;;;5075191;28;20622;-64
2021/12/05 04:30:26;;;;;;;22.27;13.07;;;0.10;99.90;;;;;;5094414;28;20300;-64
2021/12/05 04:32:53;;;;;;;27.83;15.20;;;0.00;99.90;;;;;;5086763;28;20213;-63
2021/12/05 04:35:21;;;;;;;23.23;13.67;;;0.00;99.90;;;;;;5084968;28;20324;-63
2021/12/05 04:37:48;;;;;;;23.30;13.40;;;0.10;99.90;;;;;;5085158;28;20291;-62
2021/12/05 04:40:16;;;;;;;19.83;12.67;;;0.10;99.90;;;;;;5095240;28;20208;-63
2021/12/05 04:42:43;;;;;;;23.23;13.43;;;0.10;99.90;;;;;;5077498;28;20276;-63
2021/12/05 04:45:13;;;;;;;24.10;14.40;;;0.10;99.90;;;;;;5089248;28;20228;-62
2021/12/05 04:47:40;;;;;;;23.87;14.13;;;0.00;99.90;;;;;;5072922;28;20695;-63
2021/12/05 04:50:08;;;;;;;24.03;13.93;;;0.00;99.90;;;;;;5083382;28;20291;-62
2021/12/05 04:52:37;;;;;;;23.50;12.90;;;0.00;99.90;;;;;;5081929;28;20725;-63
2021/12/05 04:55:04;;;;;;;25.73;14.07;;;0.00;99.90;;;;;;5095308;28;20620;-64
2021/12/05 04:57:31;;;;;;;25.53;15.13;;;-0.10;99.90;;;;;;5081017;28;20673;-63
2021/12/05 04:59:58;;;;;;;24.53;14.10;;;0.00;99.90;;;;;;5074977;28;20296;-62
2021/12/05 05:02:25;;;;;;;26.63;14.17;;;-0.10;99.90;;;;;;5072572;28;20300;-63
2021/12/05 05:04:54;;;;;;;25.30;14.00;;;0.00;99.90;;;;;;5092742;28;20197;-63
2021/12/05 05:07:25;;;;;;;23.57;12.87;;;0.00;99.90;;;;;;5095452;28;20212;-64
2021/12/05 05:10:05;;;;;;;24.90;13.80;;;0.00;99.90;;;;;;5075674;28;20287;-64
2021/12/05 05:12:32;;;;;;;21.80;13.50;;;-0.10;99.90;;;;;;5087196;28;20299;-63
2021/12/05 05:14:59;;;;;;;21.53;13.47;;;-0.10;99.90;;;;;;5079520;28;20304;-64
2021/12/05 05:17:26;;;;;;;24.03;13.83;;;-0.10;99.90;;;;;;5085354;28;20296;-64
2021/12/05 05:19:57;;;;;;;25.63;13.53;;;-0.10;99.90;;;;;;5075617;28;20662;-63
2021/12/05 05:22:37;;;;;;;22.53;13.17;;;-0.10;99.90;;;;;;5077726;28;20648;-62
2021/12/05 05:25:51;;;;;;;23.53;13.17;;;-0.10;99.90;;;;;;5073120;28;20552;-63
2021/12/05 05:39:08;;;;;;;21.77;12.97;;;-0.10;99.90;;;;;;5059915;28;20245;-62
2021/12/05 05:39:37;;;;;;;22.10;13.27;;;-0.10;99.90;;;;;;5086133;28;20200;-64
2021/12/05 05:47:36;;;;;;;25.30;13.80;;;-0.10;99.90;;;;;;5055012;28;20624;-66
2021/12/05 05:50:05;;;;;;;20.87;13.67;;;-0.10;99.90;;;;;;5082296;28;20204;-64
2021/12/05 05:52:33;;;;;;;24.63;14.10;;;-0.10;99.90;;;;;;5086022;28;20709;-64
2021/12/05 05:55:01;;;;;;;26.10;14.13;;;-0.10;99.90;;;;;;5086893;28;20728;-63
2021/12/05 05:57:38;;;;;;;29.63;14.67;;;-0.10;99.90;;;;;;5073710;28;20255;-63
2021/12/05 06:00:12;;;;;;;26.53;14.57;;;-0.10;99.90;;;;;;5076520;28;20209;-65
2021/12/05 06:05:25;;;;;;;26.70;15.07;;;-0.20;99.90;;;;;;5063005;28;20216;-62
2021/12/05 06:07:52;;;;;;;24.97;15.07;;;-0.20;99.90;;;;;;5073268;28;20240;-63
2021/12/05 06:10:22;;;;;;;23.27;14.90;;;-0.20;99.90;;;;;;5077720;28;20200;-62
2021/12/05 06:12:52;;;;;;;25.67;14.87;;;-0.20;99.90;;;;;;5086624;28;20236;-63
2021/12/05 06:15:21;;;;;;;22.97;14.23;;;-0.20;99.90;;;;;;5075227;28;20213;-62
2021/12/05 06:17:48;;;;;;;23.63;14.73;;;-0.10;99.90;;;;;;5076946;28;20206;-62
2021/12/05 06:20:17;;;;;;;24.90;15.33;;;-0.10;99.90;;;;;;5074113;28;20330;-61
2021/12/05 06:22:44;;;;;;;23.93;14.43;;;-0.10;99.90;;;;;;5073800;28;20209;-62
2021/12/05 06:25:17;;;;;;;28.27;14.33;;;-0.10;99.90;;;;;;5090864;28;20580;-62
2021/12/05 06:27:44;;;;;;;25.57;15.13;;;-0.10;99.90;;;;;;5087318;28;20205;-63
2021/12/05 06:30:18;;;;;;;25.57;14.97;;;-0.10;99.90;;;;;;5075697;28;20236;-65
2021/12/05 06:38:36;;;;;;;23.07;14.17;;;-0.10;99.90;;;;;;5065476;28;20590;-63
2021/12/05 06:41:11;;;;;;;24.43;14.33;;;-0.10;99.90;;;;;;5071868;28;20209;-64
2021/12/05 06:46:27;;;;;;;30.17;15.07;;;-0.10;99.90;;;;;;5087618;28;20327;-63
2021/12/05 06:48:54;;;;;;;27.40;15.27;;;-0.20;99.90;;;;;;5071753;28;20197;-62
2021/12/05 06:51:25;;;;;;;24.87;13.57;;;-0.20;99.90;;;;;;5075176;28;20832;-63
2021/12/05 06:53:53;;;;;;;26.73;14.33;;;-0.20;99.90;;;;;;5092930;28;20248;-63
2021/12/05 06:56:20;;;;;;;24.77;13.60;;;-0.20;99.90;;;;;;5085831;28;20837;-63
2021/12/05 06:58:47;;;;;;;28.27;15.47;;;-0.20;99.90;;;;;;5082054;28;20243;-62
2021/12/05 07:01:15;;;;;;;21.77;13.70;;;-0.20;99.90;;;;;;5081618;28;20304;-63
2021/12/05 07:03:47;;;;;;;26.00;14.17;;;-0.20;99.90;;;;;;5081507;28;20244;-61
2021/12/05 07:06:21;;;;;;;25.40;13.10;;;-0.20;99.90;;;;;;5076418;28;20197;-63
2021/12/05 07:08:49;;;;;;;29.07;15.57;;;-0.20;99.90;;;;;;5072634;28;20209;-63
2021/12/05 07:11:21;;;;;;;24.83;14.83;;;-0.20;99.90;;;;;;5071661;28;20236;-63
2021/12/05 07:16:42;;;;;;;24.23;13.43;;;-0.20;99.90;;;;;;5057665;28;20210;-62
2021/12/05 07:21:57;;;;;;;23.67;14.60;;;-0.10;99.90;;;;;;5074637;28;20614;-63
2021/12/05 07:24:42;;;;;;;24.80;15.30;;;-0.10;99.90;;;;;;5083595;28;20611;-62
2021/12/05 07:40:50;;;;;;;28.13;16.10;;;0.40;99.90;;;;;;5084246;28;20335;-62
2021/12/05 07:43:17;;;;;;;28.70;16.83;;;0.40;99.90;;;;;;5071920;28;20217;-63
2021/12/05 07:45:52;;;;;;;29.97;16.63;;;0.50;99.90;;;;;;5071515;28;20201;-64
2021/12/05 07:48:22;;;;;;;25.33;15.47;;;0.50;99.90;;;;;;5074885;28;20205;-67
2021/12/05 07:51:00;;;;;;;28.07;15.93;;;0.60;99.90;;;;;;5076042;28;20197;-66
2021/12/05 07:53:32;;;;;;;27.67;16.50;;;0.60;99.90;;;;;;5074859;28;20678;-65
2021/12/05 07:56:07;;;;;;;28.53;15.83;;;0.70;99.90;;;;;;5072100;28;20681;-65
2021/12/05 07:58:53;;;;;;;25.77;15.37;;;0.70;99.90;;;;;;5096120;28;20204;-66
2021/12/05 08:15:14;;;;;;;26.20;15.33;;;0.70;99.90;;;;;;5073303;28;20258;-65
2021/12/05 08:17:49;;;;;;;26.90;13.77;;;0.80;99.90;;;;;;5078711;28;20232;-65
2021/12/05 08:20:16;;;;;;;25.87;14.60;;;0.80;99.90;;;;;;5074873;28;20638;-65
2021/12/05 08:22:44;;;;;;;26.90;15.87;;;0.80;99.90;;;;;;5075832;28;20646;-65
2021/12/05 08:25:13;;;;;;;25.93;14.63;;;0.80;99.90;;;;;;5074971;28;20239;-66
2021/12/05 08:27:45;;;;;;;28.97;15.63;;;0.80;99.90;;;;;;5077964;28;20292;-68
2021/12/05 08:30:21;;;;;;;26.07;15.20;;;0.80;99.90;;;;;;5073917;28;20502;-66
2021/12/05 08:32:59;;;;;;;25.93;14.83;;;0.80;99.90;;;;;;5074964;28;20205;-66
2021/12/05 08:35:48;;;;;;;29.00;14.67;;;0.70;99.90;;;;;;5070431;28;20232;-66
2021/12/05 08:44:13;;;;;;;23.97;14.20;;;0.80;99.90;;;;;;5066963;28;20303;-64
2021/12/05 09:28:36;;;;;;;27.70;15.07;;;1.00;99.90;;;;;;5054689;28;20209;-64
2021/12/05 09:31:21;;;;;;;25.30;13.93;;;1.10;99.90;;;;;;5070590;28;20232;-65
2021/12/05 10:07:00;;;;;;;25.50;14.90;;;2.00;99.90;;;;;;5072008;28;20701;-66
2021/12/05 10:09:52;;;;;;;27.77;15.33;;;2.10;99.90;;;;;;5073032;28;20609;-66
2021/12/05 10:12:59;;;;;;;23.73;14.53;;;2.20;99.90;;;;;;5073618;28;20235;-65
2021/12/05 10:15:38;;;;;;;25.73;15.17;;;2.20;99.90;;;;;;5072047;28;20229;-68
2021/12/05 10:26:55;;;;;;;27.03;13.97;;;2.40;99.90;;;;;;5042545;28;20209;-67
2021/12/05 10:35:25;;;;;;;27.97;17.27;;;2.50;99.90;;;;;;5062747;28;20229;-66
2021/12/05 10:37:59;;;;;;;27.13;16.27;;;2.50;99.90;;;;;;5063469;28;20259;-67
2021/12/05 10:40:34;;;;;;;27.20;15.77;;;2.50;99.90;;;;;;5068377;28;20200;-67
2021/12/05 10:43:06;;;;;;;26.60;16.23;;;2.60;99.90;;;;;;5064741;28;20200;-68
2021/12/05 10:45:37;;;;;;;26.83;15.60;;;2.70;99.90;;;;;;5070813;28;20259;-66
2021/12/05 10:48:06;;;;;;;28.43;15.97;;;2.70;99.90;;;;;;5071402;28;20304;-67
2021/12/05 10:50:40;;;;;;;23.20;15.13;;;2.70;99.90;;;;;;5079833;28;20201;-67
2021/12/05 10:53:37;;;;;;;24.90;14.77;;;2.80;99.90;;;;;;5078548;28;20193;-67
2021/12/05 10:56:17;;;;;;;24.40;14.60;;;2.70;99.90;;;;;;5091708;28;20232;-67
2021/12/05 10:58:48;;;;;;;24.43;14.40;;;2.70;99.90;;;;;;5092860;28;20211;-67
2021/12/05 11:01:26;;;;;;;25.03;15.57;;;2.70;99.90;;;;;;5077756;28;20333;-67
2021/12/05 11:03:56;;;;;;;28.43;16.30;;;2.70;99.90;;;;;;5091660;28;20284;-67
2021/12/05 11:06:32;;;;;;;26.53;14.87;;;2.70;99.90;;;;;;5076125;28;20241;-66
2021/12/05 11:09:03;;;;;;;29.17;15.37;;;2.70;99.90;;;;;;5066323;28;20197;-68
2021/12/05 11:11:30;;;;;;;25.73;15.40;;;2.60;99.90;;;;;;5072337;28;20247;-67
2021/12/05 11:14:01;;;;;;;24.73;14.97;;;2.60;99.90;;;;;;5072440;28;20288;-66
2021/12/05 11:16:41;;;;;;;24.17;14.73;;;2.50;99.90;;;;;;5086020;28;20251;-67
2021/12/05 11:19:13;;;;;;;28.07;15.20;;;2.50;99.90;;;;;;5071813;28;20627;-68
2021/12/05 11:21:47;;;;;;;27.37;15.47;;;2.50;99.90;;;;;;5071826;28;20229;-65
2021/12/05 11:24:18;;;;;;;25.77;15.40;;;2.40;99.90;;;;;;5080742;28;20204;-67
2021/12/05 11:27:01;;;;;;;27.00;15.20;;;2.30;99.90;;;;;;5079274;28;20585;-67
2021/12/05 11:29:44;;;;;;;29.40;15.80;;;2.30;99.90;;;;;;5071599;28;20233;-67
2021/12/05 11:32:17;;;;;;;24.67;14.43;;;2.20;99.90;;;;;;5076816;28;20196;-67
2021/12/05 11:34:44;;;;;;;25.87;15.57;;;2.20;99.90;;;;;;5080231;28;20209;-67
2021/12/05 11:37:13;;;;;;;27.23;15.10;;;2.20;99.90;;;;;;5089849;28;20230;-67
2021/12/05 11:39:40;;;;;;;27.13;15.53;;;2.10;99.90;;;;;;5081923;28;20338;-66
2021/12/05 11:42:17;;;;;;;27.70;15.27;;;2.20;99.90;;;;;;5085942;28;20696;-66
2021/12/05 11:44:46;;;;;;;26.03;15.40;;;2.20;99.90;;;;;;5080767;28;20231;-67
2021/12/05 11:47:18;;;;;;;26.53;15.30;;;2.30;99.90;;;;;;5075926;28;20213;-67
2021/12/05 11:49:45;;;;;;;27.10;15.23;;;2.30;99.90;;;;;;5077491;28;20200;-67
2021/12/05 11:52:22;;;;;;;26.57;14.57;;;2.40;99.90;;;;;;5081583;28;20284;-67
2021/12/05 11:54:51;;;;;;;23.93;13.80;;;2.40;99.90;;;;;;5091036;28;20283;-67
2021/12/05 11:57:24;;;;;;;20.53;12.93;;;2.50;99.90;;;;;;5087620;28;20282;-66
2021/12/05 11:59:53;;;;;;;21.27;12.80;;;2.50;99.90;;;;;;5088589;28;20562;-67
2021/12/05 12:02:25;;;;;;;21.67;13.47;;;2.40;99.90;;;;;;5070643;28;20300;-66
2021/12/05 12:04:55;;;;;;;23.00;13.67;;;2.50;99.90;;;;;;5072772;28;20197;-67
2021/12/05 12:07:28;;;;;;;23.40;14.10;;;2.50;99.90;;;;;;5071137;28;20244;-67
2021/12/05 12:09:59;;;;;;;23.50;13.83;;;2.50;99.90;;;;;;5071349;28;20194;-67
2021/12/05 12:12:26;;;;;;;27.80;14.80;;;2.60;99.90;;;;;;5070305;28;20627;-67
2021/12/05 12:14:54;;;;;;;24.33;14.63;;;2.60;99.90;;;;;;5058492;28;20728;-67
2021/12/05 12:17:21;;;;;;;28.40;16.03;;;2.70;99.90;;;;;;5057748;28;20677;-67
2021/12/05 12:19:52;;;;;;;27.20;16.20;;;2.70;99.90;;;;;;5054009;28;20216;-67
2021/12/05 12:22:21;;;;;;;25.03;15.57;;;2.80;99.90;;;;;;5054386;28;20248;-66
2021/12/05 12:24:52;;;;;;;25.20;15.93;;;2.80;99.90;;;;;;5053109;28;20585;-67
2021/12/05 12:27:19;;;;;;;27.77;16.17;;;2.70;99.90;;;;;;5057937;28;20268;-68
2021/12/05 12:29:46;;;;;;;26.03;14.23;;;2.70;99.90;;;;;;5062389;28;20241;-67
2021/12/05 12:32:18;;;;;;;26.03;15.40;;;2.70;99.90;;;;;;5056543;28;20702;-67
2021/12/05 12:34:45;;;;;;;24.50;14.93;;;2.60;99.90;;;;;;5064630;28;20209;-65
2021/12/05 12:37:13;;;;;;;26.10;15.43;;;2.60;99.90;;;;;;5066181;28;20312;-65
2021/12/05 12:39:46;;;;;;;26.00;15.10;;;2.60;99.90;;;;;;5059499;28;20237;-64
2021/12/05 12:42:20;;;;;;;26.63;14.40;;;2.50;99.90;;;;;;5066845;28;20197;-65
2021/12/05 12:45:10;;;;;;;26.30;15.70;;;2.50;99.90;;;;;;5069352;28;20354;-66
2021/12/05 12:47:40;;;;;;;22.00;14.37;;;2.40;99.90;;;;;;5071293;28;20267;-67
2021/12/05 12:50:26;;;;;;;25.57;14.23;;;2.30;99.90;;;;;;5065732;28;20240;-67
2021/12/05 12:53:03;;;;;;;23.23;13.20;;;2.20;99.90;;;;;;5070640;28;20232;-66
2021/12/05 12:55:32;;;;;;;22.93;13.07;;;2.10;99.90;;;;;;5063245;28;20240;-65
2021/12/05 12:58:04;;;;;;;22.83;14.10;;;2.00;99.90;;;;;;5067425;28;20319;-64
2021/12/05 13:00:34;;;;;;;25.10;14.73;;;1.80;99.90;;;;;;5073437;28;20197;-66
2021/12/05 13:03:14;;;;;;;23.33;14.13;;;1.80;99.90;;;;;;5073206;28;20767;-68
2021/12/05 13:07:20;;;;;;;25.90;15.13;;;1.70;99.90;;;;;;5073233;28;20201;-66
2021/12/05 13:11:48;;;;;;;24.43;14.20;;;1.50;99.90;;;;;;5071755;28;20204;-65
2021/12/05 13:14:19;;;;;;;26.40;14.90;;;1.40;99.90;;;;;;5073757;28;20209;-67
2021/12/05 13:16:47;;;;;;;27.13;15.33;;;1.50;99.90;;;;;;5072073;28;20756;-66
2021/12/05 13:19:19;;;;;;;24.23;13.50;;;1.40;99.90;;;;;;5065025;28;20210;-66
2021/12/05 13:21:49;;;;;;;25.43;13.97;;;1.40;99.90;;;;;;5064504;28;20242;-66
2021/12/05 13:24:29;;;;;;;25.03;14.10;;;1.40;99.90;;;;;;5063775;28;20206;-66
2021/12/05 13:27:03;;;;;;;23.57;14.70;;;1.40;99.90;;;;;;5069067;28;20199;-67
2021/12/05 13:29:33;;;;;;;21.93;14.70;;;1.50;99.90;;;;;;5065003;28;20206;-67
2021/12/05 13:32:07;;;;;;;24.37;15.20;;;1.50;99.90;;;;;;5060697;28;20300;-69
2021/12/05 13:34:47;;;;;;;27.60;14.77;;;1.50;99.90;;;;;;5074155;28;20620;-69
2021/12/05 13:37:26;;;;;;;25.90;14.87;;;1.50;99.90;;;;;;5074536;28;20211;-68
2021/12/05 13:39:56;;;;;;;29.17;16.10;;;1.50;99.90;;;;;;5075081;28;20669;-67
2021/12/05 13:42:27;;;;;;;26.20;14.87;;;1.50;99.90;;;;;;5072926;28;20269;-67
2021/12/05 13:45:18;;;;;;;27.77;15.73;;;1.50;99.90;;;;;;5072055;28;20387;-66
2021/12/05 13:47:48;;;;;;;23.10;14.07;;;1.50;99.90;;;;;;5060879;28;20289;-67
2021/12/05 13:50:42;;;;;;;23.00;14.53;;;1.50;99.90;;;;;;5080827;28;20213;-67
2021/12/05 13:53:31;;;;;;;25.93;15.60;;;1.40;99.90;;;;;;5075017;28;20274;-67
2021/12/05 13:56:21;;;;;;;26.00;16.27;;;1.40;99.90;;;;;;5068723;28;20263;-68
2021/12/05 13:58:51;;;;;;;27.30;16.13;;;1.40;99.90;;;;;;5072351;28;20205;-69
2021/12/05 14:01:26;;;;;;;25.50;15.77;;;1.40;99.90;;;;;;5072493;28;20201;-68
2021/12/05 14:04:24;;;;;;;30.27;16.80;;;1.40;99.90;;;;;;5073300;28;20227;-69
2021/12/05 14:06:58;;;;;;;23.87;15.60;;;1.40;99.90;;;;;;5067597;28;20209;-67
2021/12/05 14:09:32;;;;;;;29.00;16.20;;;1.50;99.90;;;;;;5072835;28;20609;-67
2021/12/05 14:12:03;;;;;;;26.33;16.50;;;1.40;99.90;;;;;;5071939;28;20269;-68
2021/12/05 14:14:34;;;;;;;27.97;16.80;;;1.40;99.90;;;;;;5064185;28;20273;-70
2021/12/05 14:17:05;;;;;;;31.13;16.60;;;1.40;99.90;;;;;;5072016;28;20217;-67
2021/12/05 14:19:35;;;;;;;27.53;16.57;;;1.40;99.90;;;;;;5073360;28;20247;-68
2021/12/05 14:22:05;;;;;;;29.03;16.50;;;1.40;99.90;;;;;;5070143;28;20275;-67
2021/12/05 14:24:34;;;;;;;30.70;17.57;;;1.30;99.90;;;;;;5064516;28;20240;-67
2021/12/05 14:27:03;;;;;;;29.53;17.27;;;1.30;99.90;;;;;;5071341;28;20289;-70
2021/12/05 14:29:33;;;;;;;30.23;17.57;;;1.30;99.90;;;;;;5071465;28;20205;-68
2021/12/05 14:32:06;;;;;;;29.17;17.90;;;1.30;99.90;;;;;;5069173;28;20212;-68
2021/12/05 14:34:34;;;;;;;29.73;17.73;;;1.30;99.90;;;;;;5067204;28;20198;-66
2021/12/05 14:37:04;;;;;;;28.87;16.90;;;1.30;99.90;;;;;;5070702;28;20225;-67
2021/12/05 14:39:34;;;;;;;27.20;17.50;;;1.30;99.90;;;;;;5070561;28;20300;-66
2021/12/05 14:42:02;;;;;;;30.17;18.97;;;1.20;99.90;;;;;;5070674;28;20241;-66
2021/12/05 14:44:31;;;;;;;31.27;18.43;;;1.20;99.90;;;;;;5070655;28;20251;-68
2021/12/05 14:47:06;;;;;;;32.93;19.03;;;1.30;99.90;;;;;;5071318;28;20292;-67
2021/12/05 14:49:36;;;;;;;31.97;18.13;;;1.30;99.90;;;;;;5074686;28;20231;-67
2021/12/05 14:52:07;;;;;;;30.27;18.13;;;1.20;99.90;;;;;;5074243;28;20292;-65
2021/12/05 14:54:37;;;;;;;31.90;18.77;;;1.20;99.90;;;;;;5074739;28;20292;-66
2021/12/05 14:57:13;;;;;;;29.23;18.37;;;1.30;99.90;;;;;;5064485;28;20312;-68
2021/12/05 14:59:41;;;;;;;27.80;17.70;;;1.20;99.90;;;;;;5068178;28;20284;-66
2021/12/05 15:02:10;;;;;;;26.97;17.70;;;1.30;99.90;;;;;;5069135;28;20935;-68
2021/12/05 15:04:39;;;;;;;33.53;17.87;;;1.30;99.90;;;;;;5067514;28;20292;-65
2021/12/05 15:07:07;;;;;;;29.00;17.23;;;1.30;99.90;;;;;;5068379;28;20286;-66
2021/12/05 15:09:37;;;;;;;30.27;17.47;;;1.20;99.90;;;;;;5069121;28;20228;-68
2021/12/05 15:12:08;;;;;;;31.03;18.23;;;1.20;99.90;;;;;;5068374;28;20221;-67
2021/12/05 15:14:36;;;;;;;29.33;17.60;;;1.20;99.90;;;;;;5066897;28;20830;-67
2021/12/05 15:17:07;;;;;;;28.77;17.50;;;1.20;99.90;;;;;;5069216;28;20225;-66
2021/12/05 15:19:39;;;;;;;27.60;17.53;;;1.10;99.90;;;;;;5068947;28;20201;-67
2021/12/05 15:22:08;;;;;;;25.93;17.20;;;1.10;99.90;;;;;;5069246;28;20296;-67
2021/12/05 15:24:38;;;;;;;31.90;18.20;;;1.10;99.90;;;;;;5068456;28;20223;-66
2021/12/05 15:27:13;;;;;;;28.50;17.93;;;1.10;99.90;;;;;;5067866;28;20197;-67
2021/12/05 15:29:45;;;;;;;31.00;17.00;;;1.20;99.90;;;;;;5066470;28;20197;-66
2021/12/05 15:32:17;;;;;;;33.17;18.00;;;1.20;99.90;;;;;;5064785;28;20240;-65
2021/12/05 15:34:45;;;;;;;33.73;18.67;;;1.20;99.90;;;;;;5070369;28;20293;-66
2021/12/05 15:37:14;;;;;;;26.27;16.77;;;1.20;99.90;;;;;;5070388;28;20765;-66
2021/12/05 15:39:44;;;;;;;27.70;16.13;;;1.10;99.90;;;;;;5070868;28;20665;-65
2021/12/05 15:42:19;;;;;;;30.63;17.27;;;1.10;99.90;;;;;;5069630;28;20239;-65
2021/12/05 15:44:47;;;;;;;31.13;17.97;;;1.10;99.90;;;;;;5064457;28;20205;-66
2021/12/05 15:47:17;;;;;;;30.07;17.90;;;1.10;99.90;;;;;;5070488;28;20387;-67
2021/12/05 15:50:01;;;;;;;28.60;17.30;;;1.10;99.90;;;;;;5070542;28;20264;-68
2021/12/05 15:52:39;;;;;;;30.17;18.33;;;1.20;99.90;;;;;;5073580;28;20235;-67
2021/12/05 15:55:12;;;;;;;28.97;17.97;;;1.20;99.90;;;;;;5069790;28;20288;-68
2021/12/05 15:57:41;;;;;;;28.93;18.07;;;1.20;99.90;;;;;;5079532;28;20580;-67
2021/12/05 16:00:17;;;;;;;26.87;17.53;;;1.20;99.90;;;;;;5078657;28;20242;-69
2021/12/05 16:02:47;;;;;;;29.83;18.53;;;1.20;99.90;;;;;;5069025;28;20651;-66
2021/12/05 16:05:22;;;;;;;33.43;19.53;;;1.20;99.90;;;;;;5083046;28;20204;-67
2021/12/05 16:07:51;;;;;;;28.83;16.97;;;1.20;99.90;;;;;;5071880;28;20276;-68
2021/12/05 16:10:21;;;;;;;32.70;19.43;;;1.20;99.90;;;;;;5073575;28;20256;-67
2021/12/05 16:12:50;;;;;;;30.37;18.87;;;1.20;99.90;;;;;;5066050;28;20292;-66
2021/12/05 16:15:27;;;;;;;29.50;18.00;;;1.20;99.90;;;;;;5075173;28;20652;-67
2021/12/05 16:17:57;;;;;;;32.43;19.37;;;1.20;99.90;;;;;;5076174;28;20641;-67
2021/12/05 16:20:28;;;;;;;31.43;19.03;;;1.20;99.90;;;;;;5073556;28;20209;-67
2021/12/05 16:23:07;;;;;;;34.17;18.50;;;1.20;99.90;;;;;;5072407;28;20229;-68
2021/12/05 16:25:36;;;;;;;30.73;18.63;;;1.20;99.90;;;;;;5073512;28;20280;-66
2021/12/05 16:28:05;;;;;;;29.20;17.73;;;1.20;99.90;;;;;;5075048;28;20233;-68
2021/12/05 16:30:35;;;;;;;29.87;17.37;;;1.20;99.90;;;;;;5072598;28;20283;-66
2021/12/05 16:33:05;;;;;;;30.80;18.80;;;1.20;99.90;;;;;;5064941;28;20292;-65
2021/12/05 16:35:36;;;;;;;30.73;18.23;;;1.20;99.90;;;;;;5069104;28;20744;-68
2021/12/05 16:38:19;;;;;;;31.25;21.50;;;1.20;99.90;;;;;;5065890;28;20446;-67
2021/12/05 16:40:55;;;;;;;30.43;18.13;;;1.20;99.90;;;;;;5062746;28;20285;-66
2021/12/05 16:43:23;;;;;;;32.17;21.80;;;1.20;99.90;;;;;;5066734;28;20478;-65
2021/12/05 16:45:54;;;;;;;27.47;17.70;;;1.20;99.90;;;;;;5075355;28;20486;-67
2021/12/05 16:48:21;;;;;;;28.30;18.00;;;1.20;99.90;;;;;;5075362;28;20237;-67
2021/12/05 16:50:50;;;;;;;26.40;17.47;;;1.20;99.90;;;;;;5064949;28;20221;-67
2021/12/05 16:53:32;;;;;;;24.67;15.97;;;1.20;99.90;;;;;;5060433;28;20267;-67
2021/12/05 16:56:00;;;;;;;27.63;15.93;;;1.10;99.90;;;;;;5065241;28;20203;-65
2021/12/05 16:58:27;;;;;;;22.47;14.93;;;1.10;99.90;;;;;;5064892;28;20229;-67
2021/12/05 17:00:55;;;;;;;26.53;16.63;;;1.10;99.90;;;;;;5070816;28;20342;-66
2021/12/05 17:03:24;;;;;;;24.20;16.67;;;1.10;99.90;;;;;;5072447;28;20255;-66
2021/12/05 17:05:59;;;;;;;25.87;17.17;;;1.10;99.90;;;;;;5072700;28;20923;-68
2021/12/05 17:08:28;;;;;;;28.50;17.03;;;1.10;99.90;;;;;;5075925;28;20228;-68